createdAt,value
2018-09-30T00:02:27.063Z,30.30
2018-09-30T00:04:58.548Z,29.87
2018-09-30T00:07:30.323Z,29.63
2018-09-30T00:10:00.943Z,30.20
2018-09-30T00:12:31.906Z,30.10
2018-09-30T00:15:04.044Z,29.00
2018-09-30T00:17:35.773Z,29.80
2018-09-30T00:20:06.055Z,27.03
2018-09-30T00:22:36.667Z,29.20
2018-09-30T00:25:12.226Z,27.60
2018-09-30T00:27:43.101Z,29.17
2018-09-30T00:30:14.166Z,27.53
2018-09-30T00:32:44.803Z,25.10
2018-09-30T00:35:16.874Z,27.00
2018-09-30T00:37:47.347Z,28.27
2018-09-30T00:40:17.723Z,26.23
2018-09-30T00:42:48.362Z,27.37
2018-09-30T00:45:18.624Z,29.43
2018-09-30T00:47:49.823Z,30.90
2018-09-30T00:50:21.029Z,29.30
2018-09-30T00:52:52.028Z,32.63
2018-09-30T00:55:24.066Z,30.50
2018-09-30T00:57:54.696Z,31.20
2018-09-30T01:00:25.590Z,32.13
2018-09-30T01:02:56.872Z,31.40
2018-09-30T01:05:28.442Z,33.93
2018-09-30T01:07:59.626Z,32.17
2018-09-30T01:10:30.841Z,33.80
2018-09-30T01:13:01.222Z,36.20
2018-09-30T01:15:32.285Z,35.40
2018-09-30T01:18:03.632Z,34.70
2018-09-30T01:20:34.934Z,35.23
2018-09-30T01:23:06.346Z,34.57
2018-09-30T01:25:38.060Z,35.00
2018-09-30T01:28:09.225Z,34.27
2018-09-30T01:30:40.714Z,35.40
2018-09-30T01:33:11.827Z,33.50
2018-09-30T01:35:42.377Z,34.67
2018-09-30T01:38:14.782Z,36.93
2018-09-30T01:40:45.542Z,35.00
2018-09-30T01:43:17.002Z,38.40
2018-09-30T01:45:47.345Z,34.20
2018-09-30T01:48:17.994Z,36.20
2018-09-30T01:50:48.184Z,36.77
2018-09-30T01:53:18.447Z,35.67
2018-09-30T01:55:49.909Z,36.53
2018-09-30T01:58:20.836Z,38.03
2018-09-30T02:00:51.942Z,36.90
2018-09-30T02:03:23.067Z,36.67
2018-09-30T02:05:53.987Z,39.63
2018-09-30T02:08:25.023Z,40.10
2018-09-30T02:10:55.903Z,40.00
2018-09-30T02:13:26.704Z,41.87
2018-09-30T02:15:58.176Z,39.33
2018-09-30T02:18:28.882Z,40.60
2018-09-30T02:20:59.865Z,40.50
2018-09-30T02:23:30.561Z,40.50
2018-09-30T02:26:01.668Z,39.70
2018-09-30T02:28:32.155Z,36.77
2018-09-30T02:31:02.583Z,37.23
2018-09-30T02:33:33.307Z,38.30
2018-09-30T02:36:04.494Z,41.57
2018-09-30T02:38:35.528Z,42.77
2018-09-30T02:41:06.464Z,40.80
2018-09-30T02:43:37.090Z,41.40
2018-09-30T02:46:09.107Z,40.70
2018-09-30T02:48:40.113Z,38.50
2018-09-30T02:51:11.067Z,38.63
2018-09-30T02:53:42.227Z,38.60
2018-09-30T02:56:12.930Z,37.70
2018-09-30T02:58:44.669Z,36.67
2018-09-30T03:01:15.708Z,37.70
2018-09-30T03:03:47.026Z,36.20
2018-09-30T03:06:23.422Z,37.30
2018-09-30T03:08:59.579Z,37.10
2018-09-30T03:11:30.782Z,35.67
2018-09-30T03:14:01.286Z,35.47
2018-09-30T03:16:31.693Z,36.33
2018-09-30T03:19:03.371Z,35.50
2018-09-30T03:21:34.126Z,35.60
2018-09-30T03:24:05.171Z,34.10
2018-09-30T03:26:36.272Z,34.20
2018-09-30T03:29:07.507Z,35.23
2018-09-30T03:31:38.784Z,33.50
2018-09-30T03:34:09.946Z,33.23
2018-09-30T03:36:40.911Z,31.97
2018-09-30T03:39:12.341Z,31.03
2018-09-30T03:41:42.987Z,32.93
2018-09-30T03:44:14.192Z,32.57
2018-09-30T03:46:44.919Z,32.37
2018-09-30T03:49:15.282Z,31.57
2018-09-30T03:51:45.616Z,32.47
2018-09-30T03:54:16.610Z,31.30
2018-09-30T03:56:47.242Z,32.13
2018-09-30T03:59:18.980Z,32.33
2018-09-30T04:01:49.607Z,30.73
2018-09-30T04:04:21.135Z,31.50
2018-09-30T04:06:52.790Z,33.00
2018-09-30T04:09:23.557Z,34.10
2018-09-30T04:11:55.464Z,32.43
2018-09-30T04:14:26.068Z,32.40
2018-09-30T04:16:57.429Z,31.50
2018-09-30T04:19:28.466Z,29.93
2018-09-30T04:21:59.700Z,31.67
2018-09-30T04:24:30.225Z,31.20
2018-09-30T04:27:01.493Z,33.03
2018-09-30T04:29:32.389Z,29.97
2018-09-30T04:32:03.548Z,33.00
2018-09-30T04:34:35.316Z,30.23
2018-09-30T04:37:05.867Z,30.17
2018-09-30T04:39:36.742Z,29.57
2018-09-30T04:42:08.296Z,30.77
2018-09-30T04:44:39.163Z,29.03
2018-09-30T04:47:10.200Z,28.63
2018-09-30T04:49:41.865Z,30.57
2018-09-30T04:52:13.763Z,29.23
2018-09-30T04:54:44.989Z,29.10
2018-09-30T04:57:15.536Z,27.80
2018-09-30T04:59:46.103Z,28.33
2018-09-30T05:02:17.425Z,28.40
2018-09-30T05:04:48.665Z,27.50
2018-09-30T05:07:19.582Z,29.60
2018-09-30T05:09:50.142Z,28.13
2018-09-30T05:12:21.200Z,26.40
2018-09-30T05:14:52.265Z,26.37
2018-09-30T05:17:22.710Z,25.20
2018-09-30T05:19:53.148Z,25.53
2018-09-30T05:22:24.061Z,24.60
2018-09-30T05:24:55.678Z,25.57
2018-09-30T05:27:26.994Z,24.67
2018-09-30T05:29:57.882Z,23.73
2018-09-30T05:32:28.276Z,23.80
2018-09-30T05:34:58.616Z,22.00
2018-09-30T05:37:29.143Z,23.53
2018-09-30T05:39:59.677Z,24.20
2018-09-30T05:42:31.452Z,24.07
2018-09-30T05:45:02.226Z,23.90
2018-09-30T05:47:33.232Z,23.30
2018-09-30T05:50:04.388Z,23.20
2018-09-30T05:52:34.975Z,21.87
2018-09-30T05:55:06.045Z,20.90
2018-09-30T05:57:37.696Z,21.10
2018-09-30T06:00:08.522Z,20.77
2018-09-30T06:02:39.318Z,21.10
2018-09-30T06:05:09.816Z,21.20
2018-09-30T06:07:41.190Z,21.57
2018-09-30T06:10:11.808Z,19.47
2018-09-30T06:12:42.578Z,19.57
2018-09-30T06:15:13.315Z,20.23
2018-09-30T06:17:43.916Z,19.00
2018-09-30T06:20:14.416Z,18.00
2018-09-30T06:22:45.587Z,17.80
2018-09-30T06:25:17.187Z,17.43
2018-09-30T06:27:48.629Z,19.70
2018-09-30T06:30:20.109Z,19.33
2018-09-30T06:32:50.836Z,18.50
2018-09-30T06:35:21.411Z,17.17
2018-09-30T06:37:52.986Z,16.60
2018-09-30T06:40:24.166Z,18.60
2018-09-30T06:42:54.845Z,17.80
2018-09-30T06:45:26.481Z,17.97
2018-09-30T06:47:58.143Z,16.63
2018-09-30T06:50:29.240Z,16.57
2018-09-30T06:53:00.799Z,17.07
2018-09-30T06:55:31.828Z,16.90
2018-09-30T06:58:02.373Z,18.73
2018-09-30T07:00:33.159Z,17.80
2018-09-30T07:03:03.946Z,19.70
2018-09-30T07:05:34.896Z,19.50
2018-09-30T07:08:05.723Z,19.33
2018-09-30T07:10:36.591Z,18.83
2018-09-30T07:13:08.172Z,19.40
2018-09-30T07:15:39.491Z,19.40
2018-09-30T07:18:09.832Z,19.83
2018-09-30T07:20:40.983Z,20.10
2018-09-30T07:23:13.751Z,18.43
2018-09-30T07:25:44.468Z,17.30
2018-09-30T07:28:14.581Z,16.83
2018-09-30T07:30:45.311Z,17.00
2018-09-30T07:33:15.948Z,16.93
2018-09-30T07:35:47.997Z,17.77
2018-09-30T07:38:18.593Z,15.93
2018-09-30T07:40:49.739Z,16.27
2018-09-30T07:43:20.695Z,15.47
2018-09-30T07:45:52.385Z,15.20
2018-09-30T07:48:22.873Z,15.57
2018-09-30T07:50:54.263Z,13.73
2018-09-30T07:53:24.414Z,14.00
2018-09-30T07:55:54.749Z,15.27
2018-09-30T07:58:25.727Z,14.60
2018-09-30T08:00:57.236Z,13.57
2018-09-30T08:03:28.744Z,14.00
2018-09-30T08:05:59.463Z,13.80
2018-09-30T08:08:30.393Z,13.97
2018-09-30T08:11:01.916Z,14.57
2018-09-30T08:13:32.926Z,13.83
2018-09-30T08:16:03.913Z,14.30
2018-09-30T08:18:34.056Z,14.73
2018-09-30T08:21:04.548Z,13.87
2018-09-30T08:23:35.812Z,13.73
2018-09-30T08:26:06.099Z,13.23
2018-09-30T08:28:36.069Z,12.63
2018-09-30T08:31:06.299Z,13.40
2018-09-30T08:33:37.776Z,12.60
2018-09-30T08:36:13.877Z,12.60
2018-09-30T08:38:45.561Z,12.00
2018-09-30T08:41:16.389Z,12.80
2018-09-30T08:43:47.713Z,12.07
2018-09-30T08:46:19.437Z,12.13
2018-09-30T08:48:50.831Z,11.93
2018-09-30T08:51:21.694Z,13.57
2018-09-30T08:53:52.966Z,11.70
2018-09-30T08:56:23.783Z,12.60
2018-09-30T08:58:54.842Z,13.07
2018-09-30T09:01:26.080Z,13.47
2018-09-30T09:03:56.670Z,12.90
2018-09-30T09:06:27.189Z,11.77
2018-09-30T09:08:57.660Z,11.90
2018-09-30T09:11:27.847Z,12.80
2018-09-30T09:13:58.300Z,12.50
2018-09-30T09:16:29.146Z,11.60
2018-09-30T09:19:00.516Z,12.27
2018-09-30T09:21:31.169Z,12.00
2018-09-30T09:24:01.868Z,11.97
2018-09-30T09:26:32.720Z,13.93
2018-09-30T09:29:03.415Z,13.43
2018-09-30T09:31:34.763Z,12.90
2018-09-30T09:34:06.518Z,11.87
2018-09-30T09:36:37.249Z,10.50
2018-09-30T09:39:10.518Z,11.40
2018-09-30T09:41:40.797Z,11.50
2018-09-30T09:44:11.957Z,10.90
2018-09-30T09:46:42.635Z,11.60
2018-09-30T09:49:13.683Z,11.37
2018-09-30T09:51:44.984Z,10.27
2018-09-30T09:54:15.363Z,10.40
2018-09-30T09:56:46.174Z,10.63
2018-09-30T09:59:16.928Z,9.40
2018-09-30T10:01:47.672Z,9.43
2018-09-30T10:04:19.845Z,9.90
2018-09-30T10:06:50.625Z,9.87
2018-09-30T10:09:21.585Z,10.20
2018-09-30T10:11:52.006Z,9.50
2018-09-30T10:14:23.507Z,9.00
2018-09-30T10:16:53.998Z,9.10
2018-09-30T10:19:24.553Z,9.47
2018-09-30T10:21:54.911Z,9.80
2018-09-30T10:24:25.814Z,10.40
2018-09-30T10:26:56.470Z,10.10
2018-09-30T10:29:27.403Z,9.87
2018-09-30T10:31:58.452Z,9.83
2018-09-30T10:34:29.227Z,9.90
2018-09-30T10:36:59.917Z,10.37
2018-09-30T10:39:30.956Z,9.37
2018-09-30T10:42:02.620Z,10.17
2018-09-30T10:44:33.623Z,8.60
2018-09-30T10:47:04.661Z,9.80
2018-09-30T10:49:35.265Z,9.57
2018-09-30T10:52:06.219Z,9.40
2018-09-30T10:54:36.633Z,8.70
2018-09-30T10:57:08.337Z,9.57
2018-09-30T10:59:39.045Z,8.90
2018-09-30T11:02:09.793Z,10.17
2018-09-30T11:04:40.706Z,8.83
2018-09-30T11:07:12.122Z,9.40
2018-09-30T11:09:43.151Z,9.20
2018-09-30T11:12:13.789Z,7.93
2018-09-30T11:14:44.905Z,8.90
2018-09-30T11:17:15.925Z,8.60
2018-09-30T11:19:47.621Z,9.17
2018-09-30T11:22:18.831Z,8.77
2018-09-30T11:24:49.710Z,8.50
2018-09-30T11:27:21.016Z,9.17
2018-09-30T11:29:52.026Z,9.50
2018-09-30T11:32:23.134Z,9.07
2018-09-30T11:34:54.064Z,10.07
2018-09-30T11:37:24.856Z,10.27
2018-09-30T11:39:55.628Z,9.23
2018-09-30T11:42:26.764Z,10.00
2018-09-30T11:44:57.940Z,10.87
2018-09-30T11:47:28.744Z,10.30
2018-09-30T11:49:59.973Z,10.23
2018-09-30T11:52:31.578Z,9.60
2018-09-30T11:55:02.339Z,8.80
2018-09-30T11:57:35.469Z,9.87
2018-09-30T12:00:07.624Z,10.20
2018-09-30T12:02:38.044Z,9.57
2018-09-30T12:05:08.357Z,10.60
2018-09-30T12:07:38.648Z,9.47
2018-09-30T12:10:11.869Z,10.13
2018-09-30T12:12:43.002Z,10.60
2018-09-30T12:15:13.859Z,9.90
2018-09-30T12:17:44.241Z,9.67
2018-09-30T12:20:15.185Z,10.70
2018-09-30T12:22:45.841Z,10.97
2018-09-30T12:25:17.409Z,10.53
2018-09-30T12:27:48.329Z,9.60
2018-09-30T12:30:18.961Z,9.70
2018-09-30T12:32:49.333Z,10.00
2018-09-30T12:35:19.630Z,9.70
2018-09-30T12:37:50.079Z,10.13
2018-09-30T12:40:20.639Z,10.20
2018-09-30T12:42:51.331Z,9.00
2018-09-30T12:45:22.257Z,9.17
2018-09-30T12:47:52.384Z,10.00
2018-09-30T12:50:23.051Z,9.77
2018-09-30T12:52:55.507Z,9.00
2018-09-30T12:55:26.227Z,8.93
2018-09-30T12:57:56.871Z,9.50
2018-09-30T13:00:28.689Z,9.27
2018-09-30T13:03:00.172Z,9.80
2018-09-30T13:05:31.683Z,8.80
2018-09-30T13:08:01.601Z,9.43
2018-09-30T13:10:32.330Z,8.80
2018-09-30T13:13:02.475Z,8.20
2018-09-30T13:15:33.565Z,9.77
2018-09-30T13:18:04.186Z,9.30
2018-09-30T13:20:34.955Z,9.17
2018-09-30T13:23:05.665Z,8.53
2018-09-30T13:25:36.229Z,9.17
2018-09-30T13:28:07.185Z,8.83
2018-09-30T13:30:37.986Z,8.57
2018-09-30T13:33:08.321Z,8.63
2018-09-30T13:35:38.690Z,9.57
2018-09-30T13:38:09.094Z,9.40
2018-09-30T13:40:39.228Z,8.93
2018-09-30T13:43:09.811Z,9.13
2018-09-30T13:45:41.028Z,8.60
2018-09-30T13:48:11.767Z,9.20
2018-09-30T13:50:42.545Z,9.47
2018-09-30T13:53:13.463Z,9.33
2018-09-30T13:55:44.317Z,9.00
2018-09-30T13:58:15.289Z,9.30
2018-09-30T14:00:46.225Z,8.73
2018-09-30T14:03:17.483Z,10.13
2018-09-30T14:05:48.163Z,10.10
2018-09-30T14:08:18.302Z,9.63
2018-09-30T14:10:48.381Z,9.27
2018-09-30T14:13:18.575Z,9.90
2018-09-30T14:15:49.027Z,8.77
2018-09-30T14:18:19.612Z,8.57
2018-09-30T14:20:50.263Z,8.80
2018-09-30T14:23:21.388Z,9.90
2018-09-30T14:25:52.180Z,9.77
2018-09-30T14:28:23.518Z,9.30
2018-09-30T14:30:54.615Z,9.60
2018-09-30T14:33:25.219Z,9.90
2018-09-30T14:35:55.564Z,9.30
2018-09-30T14:38:26.066Z,9.00
2018-09-30T14:40:57.419Z,9.40
2018-09-30T14:43:28.026Z,8.90
2018-09-30T14:45:58.827Z,9.33
2018-09-30T14:48:30.202Z,10.00
2018-09-30T14:51:01.490Z,8.70
2018-09-30T14:53:32.325Z,9.47
2018-09-30T14:56:02.584Z,9.00
2018-09-30T14:58:33.243Z,9.60
2018-09-30T15:01:03.987Z,9.10
2018-09-30T15:03:34.388Z,9.43
2018-09-30T15:06:05.381Z,9.97
2018-09-30T15:08:36.463Z,9.37
2018-09-30T15:11:07.626Z,9.47
2018-09-30T15:13:39.031Z,9.60
2018-09-30T15:16:09.482Z,9.73
2018-09-30T15:18:40.296Z,11.63
2018-09-30T15:21:11.187Z,10.47
2018-09-30T15:23:42.215Z,11.60
2018-09-30T15:26:13.141Z,10.53
2018-09-30T15:28:44.000Z,10.67
2018-09-30T15:31:14.526Z,11.23
2018-09-30T15:33:45.103Z,11.40
2018-09-30T15:36:16.319Z,11.43
2018-09-30T15:38:47.435Z,10.73
2018-09-30T15:41:18.365Z,10.30
2018-09-30T15:43:49.170Z,10.00
2018-09-30T15:46:20.170Z,9.97
2018-09-30T15:48:54.586Z,9.90
2018-09-30T15:51:25.420Z,10.53
2018-09-30T15:53:57.547Z,10.87
2018-09-30T15:56:28.591Z,12.13
2018-09-30T15:58:59.428Z,11.10
2018-09-30T16:01:32.209Z,10.37
2018-09-30T16:04:03.354Z,9.50
2018-09-30T16:06:34.371Z,9.80
2018-09-30T16:09:05.465Z,10.33
2018-09-30T16:11:36.584Z,10.10
2018-09-30T16:14:07.826Z,11.67
2018-09-30T16:16:38.906Z,10.90
2018-09-30T16:19:10.048Z,11.83
2018-09-30T16:21:40.789Z,11.53
2018-09-30T16:24:12.070Z,10.20
2018-09-30T16:26:42.706Z,11.70
2018-09-30T16:29:14.679Z,12.70
2018-09-30T16:31:46.452Z,13.90
2018-09-30T16:34:19.833Z,12.30
2018-09-30T16:36:50.653Z,10.73
2018-09-30T16:39:21.866Z,11.27
2018-09-30T16:41:52.336Z,12.10
2018-09-30T16:44:24.833Z,12.23
2018-09-30T16:46:56.465Z,12.30
2018-09-30T16:49:28.427Z,13.77
2018-09-30T16:51:59.829Z,11.40
2018-09-30T16:54:30.511Z,12.60
2018-09-30T16:57:01.309Z,16.20
2018-09-30T16:59:32.364Z,14.50
2018-09-30T17:02:03.110Z,13.00
2018-09-30T17:04:33.585Z,13.50
2018-09-30T17:07:05.343Z,12.10
2018-09-30T17:09:36.429Z,12.60
2018-09-30T17:12:07.383Z,12.53
2018-09-30T17:14:39.490Z,12.63
2018-09-30T17:17:10.501Z,13.13
2018-09-30T17:19:41.464Z,13.20
2018-09-30T17:22:12.946Z,18.23
2018-09-30T17:24:44.017Z,16.80
2018-09-30T17:27:14.314Z,11.30
2018-09-30T17:29:45.986Z,12.20
2018-09-30T17:32:16.578Z,11.87
2018-09-30T17:34:47.984Z,13.27
2018-09-30T17:37:18.226Z,12.00
2018-09-30T17:39:49.435Z,11.93
2018-09-30T17:42:20.757Z,12.77
2018-09-30T17:44:52.997Z,12.83
2018-09-30T17:47:25.326Z,13.27
2018-09-30T17:49:56.826Z,14.30
2018-09-30T17:52:27.987Z,13.53
2018-09-30T17:55:00.114Z,15.53
2018-09-30T17:57:31.570Z,14.10
2018-09-30T18:00:02.585Z,14.40
2018-09-30T18:02:32.867Z,16.33
2018-09-30T18:05:03.908Z,17.13
2018-09-30T18:07:34.806Z,15.13
2018-09-30T18:10:06.255Z,17.10
2018-09-30T18:12:37.714Z,16.97
2018-09-30T18:15:10.176Z,15.37
2018-09-30T18:17:41.945Z,16.07
2018-09-30T18:20:13.010Z,14.90
2018-09-30T18:22:44.587Z,15.37
2018-09-30T18:25:15.908Z,19.10
2018-09-30T18:27:46.706Z,20.10
2018-09-30T18:30:18.144Z,19.30
2018-09-30T18:32:48.956Z,20.60
2018-09-30T18:35:20.076Z,17.83
2018-09-30T18:37:51.145Z,19.00
2018-09-30T18:40:23.148Z,19.10
2018-09-30T18:42:54.732Z,19.43
2018-09-30T18:45:26.224Z,19.67
2018-09-30T18:47:57.949Z,18.37
2018-09-30T18:50:31.194Z,18.13
2018-09-30T18:53:13.944Z,18.20
2018-09-30T18:55:49.276Z,21.80
2018-09-30T19:01:11.589Z,18.40
2018-09-30T19:03:44.026Z,18.83
2018-09-30T19:06:29.465Z,18.47
2018-09-30T19:09:03.656Z,18.90
2018-09-30T19:11:36.019Z,17.37
2018-09-30T19:14:07.347Z,15.27
2018-09-30T19:16:38.426Z,15.93
2018-09-30T19:19:11.193Z,15.70
2018-09-30T19:21:46.107Z,16.50
2018-09-30T19:24:25.263Z,16.00
2018-09-30T19:27:07.545Z,15.00
2018-09-30T19:32:43.026Z,15.20
2018-09-30T19:35:17.306Z,15.50
2018-09-30T19:37:56.542Z,14.83
2018-09-30T19:40:30.709Z,15.07
2018-09-30T19:43:06.944Z,15.33
2018-09-30T19:45:40.169Z,14.70
2018-09-30T19:48:14.997Z,15.00
2018-09-30T19:50:46.907Z,13.63
2018-09-30T19:53:24.144Z,13.90
2018-09-30T19:55:55.628Z,13.60
2018-09-30T19:58:30.957Z,12.00
2018-09-30T20:03:47.414Z,11.80
2018-09-30T20:06:30.995Z,12.57
2018-09-30T20:09:05.269Z,13.03
2018-09-30T20:11:42.592Z,12.50
2018-09-30T20:14:25.940Z,11.30
2018-09-30T20:16:57.951Z,13.27
2018-09-30T20:19:32.931Z,12.10
2018-09-30T20:22:12.312Z,12.43
2018-09-30T20:24:43.314Z,12.80
2018-09-30T20:27:14.066Z,12.30
2018-09-30T20:29:51.764Z,12.63
2018-09-30T20:32:24.055Z,12.37
2018-09-30T20:34:59.216Z,12.10
2018-09-30T20:37:30.800Z,12.00
2018-09-30T20:40:03.418Z,10.87
2018-09-30T20:42:36.747Z,10.40
2018-09-30T20:45:15.624Z,10.80
2018-09-30T20:47:46.909Z,11.23
2018-09-30T20:50:17.662Z,11.17
2018-09-30T20:52:52.824Z,9.97
2018-09-30T20:55:38.424Z,10.87
2018-09-30T20:58:13.222Z,10.27
2018-09-30T21:00:59.936Z,11.10
2018-09-30T21:06:46.409Z,10.65
2018-09-30T21:09:19.622Z,10.90
2018-09-30T21:11:50.852Z,10.80
2018-09-30T21:14:23.760Z,10.70
2018-09-30T21:17:01.740Z,10.83
2018-09-30T21:19:36.622Z,11.70
2018-09-30T21:22:13.251Z,11.37
2018-09-30T21:24:45.632Z,10.17
2018-09-30T21:27:18.545Z,10.50
2018-09-30T21:29:50.629Z,11.00
2018-09-30T21:32:22.925Z,10.87
2018-09-30T21:34:57.422Z,11.57
2018-09-30T21:37:31.822Z,10.93
2018-09-30T21:40:04.087Z,12.03
2018-09-30T21:42:34.979Z,10.53
2018-09-30T21:45:05.844Z,11.63
2018-09-30T21:47:36.661Z,12.47
2018-09-30T21:50:10.435Z,12.63
2018-09-30T21:52:41.337Z,11.93
2018-09-30T21:55:14.178Z,11.30
2018-09-30T21:57:45.303Z,11.00
2018-09-30T22:00:19.965Z,11.73
2018-09-30T22:02:50.364Z,11.23
2018-09-30T22:05:21.656Z,11.90
2018-09-30T22:07:52.097Z,12.30
2018-09-30T22:10:23.135Z,12.13
2018-09-30T22:12:53.896Z,12.77
2018-09-30T22:15:25.694Z,12.87
2018-09-30T22:17:56.936Z,13.30
2018-09-30T22:20:27.635Z,13.50
2018-09-30T22:22:58.870Z,12.60
2018-09-30T22:25:29.589Z,13.60
2018-09-30T22:28:00.538Z,13.20
2018-09-30T22:30:32.531Z,13.43
2018-09-30T22:33:04.284Z,12.83
2018-09-30T22:35:35.336Z,12.57
2018-09-30T22:38:06.549Z,13.93
2018-09-30T22:40:37.207Z,13.87
2018-09-30T22:43:07.528Z,13.60
2018-09-30T22:45:39.105Z,13.93
2018-09-30T22:48:09.848Z,13.37
2018-09-30T22:50:40.985Z,14.13
2018-09-30T22:53:12.679Z,14.23
2018-09-30T22:55:43.793Z,14.47
2018-09-30T22:58:14.745Z,15.63
2018-09-30T23:00:45.172Z,15.80
2018-09-30T23:03:15.670Z,19.30
2018-09-30T23:05:46.222Z,17.50
2018-09-30T23:08:16.554Z,19.97
2018-09-30T23:10:47.999Z,19.40
2018-09-30T23:13:19.048Z,20.00
2018-09-30T23:15:49.943Z,22.10
2018-09-30T23:18:20.747Z,19.00
2018-09-30T23:20:51.912Z,19.87
2018-09-30T23:23:22.984Z,18.83
2018-09-30T23:25:53.467Z,20.17
2018-09-30T23:28:24.322Z,21.00
2018-09-30T23:30:55.196Z,21.63
2018-09-30T23:33:26.215Z,21.17
2018-09-30T23:35:56.882Z,20.60
2018-09-30T23:38:27.343Z,20.20
2018-09-30T23:40:57.831Z,16.87
2018-09-30T23:43:28.351Z,17.70
2018-09-30T23:45:58.647Z,18.83
2018-09-30T23:48:29.998Z,18.77
2018-09-30T23:51:00.803Z,17.63
2018-09-30T23:53:31.782Z,16.07
2018-09-30T23:56:02.706Z,16.10
2018-09-30T23:58:33.604Z,16.60
